Terminal Aerodrome Forecast
Issued by NWS

Home | Current Version | Previous Version | Text Only | Print | Product List | Glossary On
Versions: 1 2 3 4 5 6 7 8 9 10 11 12 13 14 15 16 17 18 19 20 21 22 23 24 25 26 27 28
000
FTUS44 KSJT 201800 AAA
TAFBBD
TAF AMD
KBBD 201833Z 2019/2118 17010KT P6SM VCTS OVC030CB
      TEMPO 2019/2022 3SM -TSRA BKN020CB
     FM210600 18012KT P6SM OVC007
     FM211500 21015KT P6SM SCT020=

USA.gov is the U.S. government's official web portal to all federal, state and local government web resources and services.